Weather History for Huntingburg, IN

Change the Weather History Date:

Thursday, February 21, 2013

  Actual Average Record
Temperature  
Mean Temperature 27 °F -  
Max Temperature 35 °F 44 °F 66 °F (1997)
Min Temperature 19 °F 29 °F 17 °F (2008)
Degree Days  
Heating Degree Days 38    
Moisture  
Dew Point 19 °F    
Average Humidity 70    
Maximum Humidity 87    
Minimum Humidity 48    
Precipitation  
Precipitation 0.16 in - - ()
Sea Level Pressure  
Sea Level Pressure 30.17 in    
Wind  
Wind Speed 9 mph (ENE)    
Max Wind Speed 23 mph    
Max Gust Speed 31 mph    
Visibility 10 miles    
Events      
Averages and records for this station are not official NWS values.
T = Trace of Precipitation, MM = Missing Value Source: NWS Daily Summary

Daily Weather History Graph

Daily Weather History Graph

Search for Another Location

Airport:

Trip Planner

Search our weather history database for the weather conditions in past years. The results will help you decide how hot, cold, wet, or windy it might be!

Date:

Astronomy

Feb. 21, 2013 Rise Set
Actual Time 7:30 AM EST 6:32 PM EST
Civil Twilight 7:03 AM EST 6:59 PM EST
Nautical Twilight 6:32 AM EST 7:30 PM EST
Astronomical Twilight 6:02 AM EST 8:01 PM EST
Moon 2:49 PM EST (2/21) 4:32 AM EST (2/21)
Length of Visible Light 11h 56m
Length of Day
11h 02m
Waxing Gibbous, 83% of the Moon is Illuminated
Feb 21
Waxing Gibbous
Feb 25
Full
Mar 4
Last Quarter
Mar 11
New
Mar 19
First Quarter

Hourly Weather History & Observations

Time (EST) Temp. Windchill Dew Point Humidity Pressure Visibility Wind Dir Wind Speed Gust Speed Precip Events Conditions
12:15 AM 21.2 °F 12.6 °F 12.2 °F 68% 30.32 in 10.0 mi North 6.9 mph - N/A   Clear
12:35 AM 21.2 °F 13.6 °F 12.2 °F 68% 30.32 in 10.0 mi North 5.8 mph - N/A   Clear
12:55 AM 21.2 °F 13.6 °F 12.2 °F 68% 30.32 in 10.0 mi North 5.8 mph - N/A   Clear
1:16 AM 21.2 °F 13.6 °F 12.2 °F 68% 30.32 in 10.0 mi North 5.8 mph - N/A   Clear
1:35 AM 21.2 °F 11.7 °F 14.0 °F 74% 30.32 in 10.0 mi North 8.1 mph - N/A   Clear
2:15 AM 21.2 °F 12.6 °F 14.0 °F 74% 30.31 in 10.0 mi NNE 6.9 mph - N/A   Clear
2:35 AM 21.2 °F 13.6 °F 12.2 °F 68% 30.31 in 10.0 mi NNE 5.8 mph - N/A   Clear
2:55 AM 19.4 °F 11.5 °F 14.0 °F 80% 30.30 in 10.0 mi NE 5.8 mph - N/A   Clear
3:15 AM 19.4 °F 11.5 °F 12.2 °F 74% 30.30 in 10.0 mi NE 5.8 mph - N/A   Clear
3:35 AM 21.2 °F 13.6 °F 12.2 °F 68% 30.30 in 10.0 mi NNE 5.8 mph - N/A   Clear
3:55 AM 19.4 °F 14.3 °F 12.2 °F 74% 30.31 in 10.0 mi NNE 3.5 mph - N/A   Clear
4:15 AM 19.4 °F 11.5 °F 12.2 °F 74% 30.30 in 10.0 mi NNE 5.8 mph - N/A   Clear
4:35 AM 21.2 °F 11.7 °F 14.0 °F 74% 30.30 in 10.0 mi NE 8.1 mph - N/A   Clear
4:55 AM 21.2 °F 13.6 °F 14.0 °F 74% 30.30 in 10.0 mi NE 5.8 mph - N/A   Clear
5:15 AM 21.2 °F 13.6 °F 14.0 °F 74% 30.30 in 10.0 mi ENE 5.8 mph - N/A   Clear
5:35 AM 21.2 °F 12.6 °F 14.0 °F 74% 30.30 in 10.0 mi NE 6.9 mph - N/A   Clear
5:55 AM 21.2 °F 10.9 °F 14.0 °F 74% 30.30 in 10.0 mi NE 9.2 mph - N/A   Clear
6:55 AM 21.2 °F 12.6 °F 12.2 °F 68% 30.32 in 10.0 mi East 6.9 mph - N/A   Clear
7:15 AM 21.2 °F 12.6 °F 12.2 °F 68% 30.31 in 10.0 mi ENE 6.9 mph - N/A   Clear
7:35 AM 21.2 °F 12.6 °F 12.2 °F 68% 30.31 in 10.0 mi ENE 6.9 mph - N/A   Clear
7:55 AM 21.2 °F 11.7 °F 12.2 °F 68% 30.31 in 10.0 mi East 8.1 mph - N/A   Clear
8:15 AM 21.2 °F 8.9 °F 14.0 °F 74% 30.30 in 10.0 mi ENE 12.7 mph - N/A   Clear
8:35 AM 21.2 °F 8.9 °F 14.0 °F 74% 30.30 in 10.0 mi ENE 12.7 mph - N/A   Clear
8:55 AM 23.0 °F 12.4 °F 14.0 °F 68% 30.30 in 10.0 mi East 10.4 mph - N/A   Clear
9:35 AM 24.8 °F 16.1 °F 15.8 °F 69% 30.29 in 10.0 mi ENE 8.1 mph - N/A   Clear
9:55 AM 26.6 °F 15.2 °F 15.8 °F 64% 30.28 in 10.0 mi East 13.8 mph - N/A   Clear
10:35 AM 26.6 °F 18.2 °F 15.8 °F 64% 30.26 in 10.0 mi ENE 8.1 mph - N/A   Clear
10:55 AM 28.4 °F 20.4 °F 15.8 °F 59% 30.29 in 10.0 mi ENE 8.1 mph - N/A   Clear
11:15 AM 28.4 °F 21.2 °F 15.8 °F 59% 30.27 in 10.0 mi East 6.9 mph - N/A   Clear
11:35 AM 30.2 °F 21.3 °F 17.6 °F 60% 30.26 in 10.0 mi ENE 10.4 mph 19.6 mph N/A   Clear
11:55 AM 30.2 °F 19.8 °F 17.6 °F 60% 30.23 in 10.0 mi ENE 13.8 mph - N/A   Clear
12:15 PM 33.8 °F 24.3 °F 19.4 °F 56% 30.20 in 10.0 mi ENE 13.8 mph - N/A   Clear
12:35 PM 32.0 °F 22.5 °F 17.6 °F 55% 30.21 in 10.0 mi NE 12.7 mph - N/A   Clear
1:15 PM 33.8 °F 25.8 °F 17.6 °F 52% 30.20 in 10.0 mi East 10.4 mph - N/A   Overcast
1:35 PM 33.8 °F 23.5 °F 17.6 °F 52% 30.16 in 10.0 mi East 16.1 mph - N/A   Overcast
1:55 PM 35.6 °F 26.2 °F 19.4 °F 52% 30.12 in 10.0 mi East 15.0 mph - N/A   Overcast
2:15 PM 35.6 °F 25.9 °F 19.4 °F 52% 30.09 in 10.0 mi East 16.1 mph 23.0 mph N/A   Scattered Clouds
2:35 PM 35.6 °F 26.6 °F 17.6 °F 48% 30.06 in 10.0 mi East 13.8 mph - N/A   Clear
2:55 PM 33.8 °F 21.9 °F 17.6 °F 52% 30.03 in 10.0 mi East 21.9 mph 27.6 mph N/A   Partly Cloudy
3:15 PM 33.8 °F 26.4 °F 19.4 °F 56% 30.04 in 10.0 mi East 9.2 mph - N/A   Scattered Clouds
3:35 PM 33.8 °F 27.7 °F 19.4 °F 56% 30.09 in 10.0 mi ENE 6.9 mph - N/A   Scattered Clouds
3:55 PM 33.8 °F 25.8 °F 21.2 °F 60% 30.08 in 10.0 mi ENE 10.4 mph - N/A   Mostly Cloudy
4:15 PM 33.8 °F 25.8 °F 23.0 °F 65% 30.10 in 10.0 mi NE 10.4 mph - N/A   Overcast
4:35 PM 33.8 °F 29.6 °F 24.8 °F 70% 30.14 in 9.0 mi NNW 4.6 mph - N/A   Scattered Clouds
4:55 PM 32.0 °F 25.6 °F 24.8 °F 75% 30.15 in 10.0 mi North 6.9 mph - N/A   Clear
5:15 PM 32.0 °F 25.6 °F 24.8 °F 75% 30.16 in 10.0 mi NNE 6.9 mph - N/A   Scattered Clouds
5:35 PM 32.0 °F 24.2 °F 24.8 °F 75% 30.15 in 10.0 mi NNE 9.2 mph - N/A   Mostly Cloudy
5:55 PM 32.0 °F 23.6 °F 24.8 °F 75% 30.12 in 5.0 mi NE 10.4 mph - N/A   Partly Cloudy
6:15 PM 30.2 °F 20.8 °F 24.8 °F 80% 30.11 in 10.0 mi NE 11.5 mph - N/A   Scattered Clouds
6:35 PM 30.2 °F 18.9 °F 26.6 °F 86% 30.09 in 9.0 mi NE 16.1 mph - N/A   Mostly Cloudy
6:55 PM 32.0 °F 20.8 °F 26.6 °F 80% 30.07 in 8.0 mi ENE 17.3 mph 21.9 mph 0.02 in   Overcast
7:15 PM 32.0 °F 21.6 °F 26.6 °F 80% 30.04 in 8.0 mi East 15.0 mph 21.9 mph 0.02 in   Overcast
7:35 PM 32.0 °F 22.5 °F 26.6 °F 80% 30.02 in 10.0 mi East 12.7 mph 26.5 mph 0.02 in   Overcast
7:55 PM 32.0 °F 20.1 °F 26.6 °F 80% 29.96 in 10.0 mi East 19.6 mph 28.8 mph 0.02 in   Mostly Cloudy
8:15 PM 32.0 °F 19.2 °F 26.6 °F 80% 29.94 in 10.0 mi East 23.0 mph 31.1 mph 0.01 in   Mostly Cloudy
8:35 PM 32.0 °F 19.2 °F 26.6 °F 80% 29.94 in 10.0 mi East 23.0 mph 28.8 mph 0.01 in   Partly Cloudy
9:15 PM 32.0 °F 22.1 °F 26.6 °F 80% 29.94 in 10.0 mi East 13.8 mph 25.3 mph N/A   Overcast
9:35 PM 33.8 °F 22.5 °F 26.6 °F 75% 29.94 in 10.0 mi East 19.6 mph 26.5 mph N/A   Overcast
9:55 PM 33.8 °F 24.3 °F 26.6 °F 75% 29.98 in 9.0 mi ESE 13.8 mph 24.2 mph N/A   Overcast
10:15 PM 32.0 °F 20.8 °F 28.4 °F 87% 29.95 in 10.0 mi ESE 17.3 mph 23.0 mph N/A   Overcast
10:35 PM 32.0 °F 22.5 °F 28.4 °F 87% 29.98 in 8.0 mi ESE 12.7 mph 19.6 mph N/A   Overcast
10:55 PM 32.0 °F 22.5 °F 28.4 °F 87% 29.97 in 4.0 mi East 12.7 mph - 0.09 in   Overcast
11:15 PM 32.0 °F 23.0 °F 28.4 °F 87% 29.95 in 7.0 mi ESE 11.5 mph 17.3 mph 0.02 in   Overcast
11:35 PM 32.0 °F 22.5 °F 28.4 °F 87% 29.93 in 10.0 mi ESE 12.7 mph - 0.02 in   Overcast
11:55 PM 33.8 °F 23.9 °F 28.4 °F 81% 29.92 in 10.0 mi ESE 15.0 mph 20.7 mph 0.02 in   Overcast